sensor_id;sensor_type;location;lat;lon;timestamp;pressure;altitude;pressure_sealevel;temperature;humidity
76022;BME280;64718;52.124;6.226;2023-02-28T00:01:17;103195.34;;;0.55;98.60
76022;BME280;64718;52.124;6.226;2023-02-28T00:03:44;103186.88;;;0.56;99.15
76022;BME280;64718;52.124;6.226;2023-02-28T00:06:10;103197.25;;;0.59;98.54
76022;BME280;64718;52.124;6.226;2023-02-28T00:08:37;103189.69;;;0.62;98.33
76022;BME280;64718;52.124;6.226;2023-02-28T00:11:05;103193.22;;;0.66;98.28
76022;BME280;64718;52.124;6.226;2023-02-28T00:13:37;103188.97;;;0.66;98.68
76022;BME280;64718;52.124;6.226;2023-02-28T00:16:05;103188.19;;;0.69;98.74
76022;BME280;64718;52.124;6.226;2023-02-28T00:18:32;103189.19;;;0.72;98.10
76022;BME280;64718;52.124;6.226;2023-02-28T00:20:59;103187.59;;;0.76;98.08
76022;BME280;64718;52.124;6.226;2023-02-28T00:23:26;103180.91;;;0.79;98.17
76022;BME280;64718;52.124;6.226;2023-02-28T00:25:53;103182.69;;;0.82;98.39
76022;BME280;64718;52.124;6.226;2023-02-28T00:28:20;103171.53;;;0.80;98.02
76022;BME280;64718;52.124;6.226;2023-02-28T00:30:48;103183.47;;;0.79;97.90
76022;BME280;64718;52.124;6.226;2023-02-28T00:33:15;103176.81;;;0.84;97.99
76022;BME280;64718;52.124;6.226;2023-02-28T00:35:41;103176.75;;;0.83;98.12
76022;BME280;64718;52.124;6.226;2023-02-28T00:38:08;103183.69;;;0.85;97.55
76022;BME280;64718;52.124;6.226;2023-02-28T00:40:35;103174.31;;;0.86;97.73
76022;BME280;64718;52.124;6.226;2023-02-28T00:43:01;103181.16;;;0.87;97.99
76022;BME280;64718;52.124;6.226;2023-02-28T00:45:29;103180.28;;;0.86;97.85
76022;BME280;64718;52.124;6.226;2023-02-28T00:47:57;103187.22;;;0.89;97.85
76022;BME280;64718;52.124;6.226;2023-02-28T00:50:23;103177.84;;;0.89;97.55
76022;BME280;64718;52.124;6.226;2023-02-28T00:52:50;103177.03;;;0.90;97.83
76022;BME280;64718;52.124;6.226;2023-02-28T00:55:16;103180.47;;;0.91;97.54
76022;BME280;64718;52.124;6.226;2023-02-28T00:57:43;103179.63;;;0.92;97.50
76022;BME280;64718;52.124;6.226;2023-02-28T01:00:11;103172.06;;;0.95;97.29
76022;BME280;64718;52.124;6.226;2023-02-28T01:02:38;103170.31;;;0.94;97.66
76022;BME280;64718;52.124;6.226;2023-02-28T01:05:06;103185.78;;;0.97;97.19
76022;BME280;64718;52.124;6.226;2023-02-28T01:07:33;103183.22;;;0.97;97.30
76022;BME280;64718;52.124;6.226;2023-02-28T01:10:00;103176.47;;;0.99;97.23
76022;BME280;64718;52.124;6.226;2023-02-28T01:12:26;103179.91;;;1.00;97.46
76022;BME280;64718;52.124;6.226;2023-02-28T01:14:53;103175.66;;;1.00;96.78
76022;BME280;64718;52.124;6.226;2023-02-28T01:17:19;103175.69;;;1.02;96.91
76022;BME280;64718;52.124;6.226;2023-02-28T01:19:46;103180.00;;;1.03;97.25
76022;BME280;64718;52.124;6.226;2023-02-28T01:22:14;103176.63;;;1.04;97.17
76022;BME280;64718;52.124;6.226;2023-02-28T01:24:40;103166.38;;;1.04;97.50
76022;BME280;64718;52.124;6.226;2023-02-28T01:27:07;103174.13;;;1.05;97.12
76022;BME280;64718;52.124;6.226;2023-02-28T01:29:33;103168.06;;;1.03;97.09
76022;BME280;64718;52.124;6.226;2023-02-28T01:32:00;103169.03;;;1.07;97.00
76022;BME280;64718;52.124;6.226;2023-02-28T01:34:26;103179.34;;;1.08;96.62
76022;BME280;64718;52.124;6.226;2023-02-28T01:36:53;103163.97;;;1.08;96.88
76022;BME280;64718;52.124;6.226;2023-02-28T01:39:20;103168.16;;;1.06;97.03
76022;BME280;64718;52.124;6.226;2023-02-28T01:41:48;103174.97;;;1.06;97.10
76022;BME280;64718;52.124;6.226;2023-02-28T01:47:18;103161.19;;;1.02;97.44
76022;BME280;64718;52.124;6.226;2023-02-28T01:49:45;103166.47;;;1.07;97.36
76022;BME280;64718;52.124;6.226;2023-02-28T01:52:12;103163.91;;;1.07;97.12
76022;BME280;64718;52.124;6.226;2023-02-28T01:54:45;103160.44;;;1.05;97.32
76022;BME280;64718;52.124;6.226;2023-02-28T01:57:17;103169.84;;;1.06;97.15
76022;BME280;64718;52.124;6.226;2023-02-28T01:59:48;103164.69;;;1.04;97.77
76022;BME280;64718;52.124;6.226;2023-02-28T02:02:20;103174.06;;;1.04;97.60
76022;BME280;64718;52.124;6.226;2023-02-28T02:04:51;103166.38;;;1.04;97.85
76022;BME280;64718;52.124;6.226;2023-02-28T02:07:20;103160.38;;;1.03;97.41
76022;BME280;64718;52.124;6.226;2023-02-28T02:09:48;103163.00;;;1.05;97.33
76022;BME280;64718;52.124;6.226;2023-02-28T02:12:24;103170.56;;;1.02;97.40
76022;BME280;64718;52.124;6.226;2023-02-28T02:15:01;103160.38;;;1.03;97.20
76022;BME280;64718;52.124;6.226;2023-02-28T02:17:34;103158.75;;;1.05;97.35
76022;BME280;64718;52.124;6.226;2023-02-28T02:20:38;103167.19;;;1.03;97.01
76022;BME280;64718;52.124;6.226;2023-02-28T02:23:30;103161.25;;;1.04;97.34
76022;BME280;64718;52.124;6.226;2023-02-28T02:26:12;103167.19;;;1.03;97.54
76022;BME280;64718;52.124;6.226;2023-02-28T02:32:10;103168.16;;;1.06;97.10
76022;BME280;64718;52.124;6.226;2023-02-28T02:34:52;103170.78;;;1.08;96.89
76022;BME280;64718;52.124;6.226;2023-02-28T02:37:30;103161.34;;;1.07;96.25
76022;BME280;64718;52.124;6.226;2023-02-28T02:40:09;103160.47;;;1.06;96.89
76022;BME280;64718;52.124;6.226;2023-02-28T02:42:42;103167.28;;;1.06;96.36
76022;BME280;64718;52.124;6.226;2023-02-28T02:45:14;103167.28;;;1.06;96.26
76022;BME280;64718;52.124;6.226;2023-02-28T02:47:43;103160.28;;;1.00;95.56
76022;BME280;64718;52.124;6.226;2023-02-28T02:50:15;103168.06;;;1.03;95.32
76022;BME280;64718;52.124;6.226;2023-02-28T02:52:46;103172.38;;;1.04;94.91
76022;BME280;64718;52.124;6.226;2023-02-28T02:55:17;103170.84;;;1.09;93.90
76022;BME280;64718;52.124;6.226;2023-02-28T02:57:47;103167.34;;;1.07;94.46
76022;BME280;64718;52.124;6.226;2023-02-28T03:00:22;103169.91;;;1.07;94.73
76022;BME280;64718;52.124;6.226;2023-02-28T03:02:50;103162.94;;;1.03;94.62
76022;BME280;64718;52.124;6.226;2023-02-28T03:05:24;103175.03;;;1.07;94.59
76022;BME280;64718;52.124;6.226;2023-02-28T03:07:52;103177.59;;;1.07;94.63
76022;BME280;64718;52.124;6.226;2023-02-28T03:10:43;103171.59;;;1.07;93.90
76022;BME280;64718;52.124;6.226;2023-02-28T03:13:34;103165.41;;;1.00;94.07
76022;BME280;64718;52.124;6.226;2023-02-28T03:16:28;103171.50;;;1.04;94.20
76022;BME280;64718;52.124;6.226;2023-02-28T03:19:05;103170.69;;;1.05;94.47
76022;BME280;64718;52.124;6.226;2023-02-28T03:21:41;103167.34;;;1.07;94.19
76022;BME280;64718;52.124;6.226;2023-02-28T03:24:12;103171.69;;;1.10;94.32
76022;BME280;64718;52.124;6.226;2023-02-28T03:26:45;103174.25;;;1.10;94.68
76022;BME280;64718;52.124;6.226;2023-02-28T03:29:22;103179.25;;;1.05;93.97
76022;BME280;64718;52.124;6.226;2023-02-28T03:31:58;103174.22;;;1.08;94.26
76022;BME280;64718;52.124;6.226;2023-02-28T03:34:29;103176.84;;;1.10;94.48
76022;BME280;64718;52.124;6.226;2023-02-28T03:37:03;103167.44;;;1.10;94.54
76022;BME280;64718;52.124;6.226;2023-02-28T03:39:36;103164.78;;;1.07;94.39
76022;BME280;64718;52.124;6.226;2023-02-28T03:42:08;103167.34;;;1.07;94.59
76022;BME280;64718;52.124;6.226;2023-02-28T03:44:40;103163.88;;;1.05;94.86
76022;BME280;64718;52.124;6.226;2023-02-28T03:47:09;103171.50;;;1.04;94.74
76022;BME280;64718;52.124;6.226;2023-02-28T03:49:40;103167.13;;;1.01;94.91
76022;BME280;64718;52.124;6.226;2023-02-28T03:52:11;103158.22;;;0.90;95.21
76022;BME280;64718;52.124;6.226;2023-02-28T03:54:41;103164.59;;;0.77;95.79
76022;BME280;64718;52.124;6.226;2023-02-28T03:57:15;103153.50;;;0.77;96.24
76022;BME280;64718;52.124;6.226;2023-02-28T03:59:46;103157.84;;;0.79;96.41
76022;BME280;64718;52.124;6.226;2023-02-28T04:02:14;103154.69;;;0.86;95.96
76022;BME280;64718;52.124;6.226;2023-02-28T04:04:40;103147.09;;;0.89;96.07
76022;BME280;64718;52.124;6.226;2023-02-28T04:07:11;103160.06;;;0.94;96.01
76022;BME280;64718;52.124;6.226;2023-02-28T04:09:38;103160.13;;;0.95;95.53
76022;BME280;64718;52.124;6.226;2023-02-28T04:12:05;103159.25;;;0.95;95.57
76022;BME280;64718;52.124;6.226;2023-02-28T04:14:31;103158.44;;;0.96;95.05
76022;BME280;64718;52.124;6.226;2023-02-28T04:16:58;103165.34;;;0.99;94.96
76022;BME280;64718;52.124;6.226;2023-02-28T04:19:24;103155.09;;;0.99;94.89
76022;BME280;64718;52.124;6.226;2023-02-28T04:21:52;103149.91;;;0.97;95.20
76022;BME280;64718;52.124;6.226;2023-02-28T04:24:23;103158.53;;;0.99;94.40
76022;BME280;64718;52.124;6.226;2023-02-28T04:26:51;103158.53;;;0.99;94.60
76022;BME280;64718;52.124;6.226;2023-02-28T04:29:19;103155.97;;;0.99;95.33
76022;BME280;64718;52.124;6.226;2023-02-28T04:31:46;103150.75;;;0.96;95.45
76022;BME280;64718;52.124;6.226;2023-02-28T04:34:13;103154.13;;;0.95;94.89
76022;BME280;64718;52.124;6.226;2023-02-28T04:36:39;103145.34;;;0.88;94.61
76022;BME280;64718;52.124;6.226;2023-02-28T04:39:06;103146.63;;;0.76;96.08
76022;BME280;64718;52.124;6.226;2023-02-28T04:41:34;103157.09;;;0.82;95.94
76022;BME280;64718;52.124;6.226;2023-02-28T04:44:00;103146.94;;;0.85;95.49
76022;BME280;64718;52.124;6.226;2023-02-28T04:46:27;103151.31;;;0.87;95.50
76022;BME280;64718;52.124;6.226;2023-02-28T04:48:54;103161.59;;;0.89;95.70
76022;BME280;64718;52.124;6.226;2023-02-28T04:51:20;103159.03;;;0.89;95.57
76022;BME280;64718;52.124;6.226;2023-02-28T04:53:47;103149.56;;;0.86;95.97
76022;BME280;64718;52.124;6.226;2023-02-28T04:56:15;103149.44;;;0.83;96.45
76022;BME280;64718;52.124;6.226;2023-02-28T04:58:44;103158.13;;;0.87;96.19
76022;BME280;64718;52.124;6.226;2023-02-28T05:01:19;103162.41;;;0.88;95.27
76022;BME280;64718;52.124;6.226;2023-02-28T05:03:47;103153.91;;;0.89;95.17
76022;BME280;64718;52.124;6.226;2023-02-28T05:06:14;103154.72;;;0.88;94.72
76022;BME280;64718;52.124;6.226;2023-02-28T05:08:41;103163.28;;;0.88;95.04
76022;BME280;64718;52.124;6.226;2023-02-28T05:11:13;103155.66;;;0.90;94.97
76022;BME280;64718;52.124;6.226;2023-02-28T05:13:40;103146.06;;;0.84;95.11
76022;BME280;64718;52.124;6.226;2023-02-28T05:16:08;103157.13;;;0.83;95.75
76022;BME280;64718;52.124;6.226;2023-02-28T05:18:35;103168.31;;;0.85;95.27
76022;BME280;64718;52.124;6.226;2023-02-28T05:21:02;103168.31;;;0.85;94.89
76022;BME280;64718;52.124;6.226;2023-02-28T05:23:28;103167.50;;;0.86;95.10
76022;BME280;64718;52.124;6.226;2023-02-28T05:25:55;103163.78;;;0.78;95.29
76022;BME280;64718;52.124;6.226;2023-02-28T05:28:22;103169.72;;;0.77;95.64
76022;BME280;64718;52.124;6.226;2023-02-28T05:30:48;103177.56;;;0.82;96.17
76022;BME280;64718;52.124;6.226;2023-02-28T05:33:16;103164.88;;;0.85;95.45
76022;BME280;64718;52.124;6.226;2023-02-28T05:35:43;103161.00;;;0.72;95.92
76022;BME280;64718;52.124;6.226;2023-02-28T05:38:09;103180.47;;;0.67;96.33
76022;BME280;64718;52.124;6.226;2023-02-28T05:40:38;103176.50;;;0.75;96.02
76022;BME280;64718;52.124;6.226;2023-02-28T05:43:05;103176.81;;;0.84;95.70
76022;BME280;64718;52.124;6.226;2023-02-28T05:45:31;103171.38;;;0.75;95.93
76022;BME280;64718;52.124;6.226;2023-02-28T05:47:58;103180.47;;;0.67;96.42
76022;BME280;64718;52.124;6.226;2023-02-28T05:50:26;103170.00;;;0.61;96.66
76022;BME280;64718;52.124;6.226;2023-02-28T05:52:52;103174.88;;;0.55;96.81
76022;BME280;64718;52.124;6.226;2023-02-28T05:55:19;103176.16;;;0.66;96.82
76022;BME280;64718;52.124;6.226;2023-02-28T05:57:46;103179.31;;;0.59;97.27
76022;BME280;64718;52.124;6.226;2023-02-28T06:00:13;103183.47;;;0.57;97.59
76022;BME280;64718;52.124;6.226;2023-02-28T06:02:40;103184.91;;;0.49;98.38
76022;BME280;64718;52.124;6.226;2023-02-28T06:05:12;103185.25;;;0.36;98.39
76022;BME280;64718;52.124;6.226;2023-02-28T06:07:41;103190.16;;;0.29;99.12
76022;BME280;64718;52.124;6.226;2023-02-28T06:10:09;103194.56;;;0.34;99.26
76022;BME280;64718;52.124;6.226;2023-02-28T06:12:36;103195.44;;;0.34;99.54
76022;BME280;64718;52.124;6.226;2023-02-28T06:15:04;103197.13;;;0.34;99.67
76022;BME280;64718;52.124;6.226;2023-02-28T06:17:30;103198.75;;;0.31;99.44
76022;BME280;64718;52.124;6.226;2023-02-28T06:19:57;103196.03;;;0.27;99.57
76022;BME280;64718;52.124;6.226;2023-02-28T06:22:23;103200.56;;;0.34;99.01
76022;BME280;64718;52.124;6.226;2023-02-28T06:24:51;103195.66;;;0.40;98.60
76022;BME280;64718;52.124;6.226;2023-02-28T06:27:20;103202.41;;;0.38;99.08
76022;BME280;64718;52.124;6.226;2023-02-28T06:29:47;103209.56;;;0.47;97.95
76022;BME280;64718;52.124;6.226;2023-02-28T06:32:13;103202.47;;;0.40;98.28
76022;BME280;64718;52.124;6.226;2023-02-28T06:34:40;103203.13;;;0.34;98.65
76022;BME280;64718;52.124;6.226;2023-02-28T06:37:07;103221.63;;;0.27;99.82
76022;BME280;64718;52.124;6.226;2023-02-28T06:39:33;103217.50;;;0.30;98.78
76022;BME280;64718;52.124;6.226;2023-02-28T06:42:01;103219.28;;;0.33;98.45
76022;BME280;64718;52.124;6.226;2023-02-28T06:44:28;103222.78;;;0.35;98.45
76022;BME280;64718;52.124;6.226;2023-02-28T06:47:01;103223.25;;;0.25;97.99
76022;BME280;64718;52.124;6.226;2023-02-28T06:49:28;103223.88;;;0.19;100.00
76022;BME280;64718;52.124;6.226;2023-02-28T06:51:55;103231.38;;;0.15;99.68
76022;BME280;64718;52.124;6.226;2023-02-28T06:54:22;103230.69;;;0.19;99.96
76022;BME280;64718;52.124;6.226;2023-02-28T06:56:48;103223.31;;;0.26;98.74
76022;BME280;64718;52.124;6.226;2023-02-28T06:59:16;103230.94;;;0.25;98.35
76022;BME280;64718;52.124;6.226;2023-02-28T07:01:43;103228.53;;;0.29;98.48
76022;BME280;64718;52.124;6.226;2023-02-28T07:04:10;103228.66;;;0.32;97.74
76022;BME280;64718;52.124;6.226;2023-02-28T07:06:38;103228.19;;;0.43;97.42
76022;BME280;64718;52.124;6.226;2023-02-28T07:09:05;103237.94;;;0.53;97.30
76022;BME280;64718;52.124;6.226;2023-02-28T07:11:31;103235.00;;;0.65;96.37
76022;BME280;64718;52.124;6.226;2023-02-28T07:13:58;103239.41;;;0.69;95.63
76022;BME280;64718;52.124;6.226;2023-02-28T07:16:26;103238.13;;;0.80;95.74
76022;BME280;64718;52.124;6.226;2023-02-28T07:18:53;103241.13;;;0.92;95.15
76022;BME280;64718;52.124;6.226;2023-02-28T07:21:20;103238.88;;;1.01;94.38
76022;BME280;64718;52.124;6.226;2023-02-28T07:23:46;103236.00;;;1.16;93.23
76022;BME280;64718;52.124;6.226;2023-02-28T07:26:14;103242.47;;;1.30;92.46
76022;BME280;64718;52.124;6.226;2023-02-28T07:28:42;103239.47;;;1.42;90.99
76022;BME280;64718;52.124;6.226;2023-02-28T07:31:10;103244.91;;;1.51;90.53
76022;BME280;64718;52.124;6.226;2023-02-28T07:33:38;103245.19;;;1.60;91.06
76022;BME280;64718;52.124;6.226;2023-02-28T07:36:06;103243.75;;;1.68;89.83
76022;BME280;64718;52.124;6.226;2023-02-28T07:38:33;103242.97;;;1.71;88.60
76022;BME280;64718;52.124;6.226;2023-02-28T07:41:00;103244.56;;;1.67;88.33
76022;BME280;64718;52.124;6.226;2023-02-28T07:43:29;103241.56;;;1.79;88.76
76022;BME280;64718;52.124;6.226;2023-02-28T07:46:01;103242.25;;;2.00;88.19
76022;BME280;64718;52.124;6.226;2023-02-28T07:48:27;103243.25;;;2.32;87.03
76022;BME280;64718;52.124;6.226;2023-02-28T07:50:56;103248.53;;;2.95;83.88
76022;BME280;64718;52.124;6.226;2023-02-28T07:53:22;103244.38;;;4.78;78.57
76022;BME280;64718;52.124;6.226;2023-02-28T07:55:49;103235.72;;;5.69;72.01
76022;BME280;64718;52.124;6.226;2023-02-28T07:58:15;103236.38;;;5.56;69.06
76022;BME280;64718;52.124;6.226;2023-02-28T08:00:42;103240.78;;;6.14;66.16
76022;BME280;64718;52.124;6.226;2023-02-28T08:03:10;103238.00;;;6.61;63.90
76022;BME280;64718;52.124;6.226;2023-02-28T08:05:38;103247.28;;;7.16;62.28
76022;BME280;64718;52.124;6.226;2023-02-28T08:08:06;103241.72;;;6.84;52.52
76022;BME280;64718;52.124;6.226;2023-02-28T08:10:33;103246.88;;;6.83;54.01
76022;BME280;64718;52.124;6.226;2023-02-28T08:13:00;103239.00;;;6.74;52.20
76022;BME280;64718;52.124;6.226;2023-02-28T08:15:26;103240.09;;;6.26;53.19
76022;BME280;64718;52.124;6.226;2023-02-28T08:17:53;103250.69;;;6.44;52.41
76022;BME280;64718;52.124;6.226;2023-02-28T08:20:21;103243.78;;;6.43;50.38
76022;BME280;64718;52.124;6.226;2023-02-28T08:22:48;103251.13;;;6.14;49.94
76022;BME280;64718;52.124;6.226;2023-02-28T08:25:16;103241.00;;;5.75;49.52
76022;BME280;64718;52.124;6.226;2023-02-28T08:27:42;103242.75;;;5.78;46.76
76022;BME280;64718;52.124;6.226;2023-02-28T08:30:10;103248.06;;;5.85;46.89
76022;BME280;64718;52.124;6.226;2023-02-28T08:32:37;103250.16;;;6.08;44.37
76022;BME280;64718;52.124;6.226;2023-02-28T08:35:05;103246.81;;;6.13;45.47
76022;BME280;64718;52.124;6.226;2023-02-28T08:37:31;103248.50;;;5.60;46.09
76022;BME280;64718;52.124;6.226;2023-02-28T08:39:58;103244.94;;;6.05;45.62
76022;BME280;64718;52.124;6.226;2023-02-28T08:42:26;103248.75;;;5.75;44.57
76022;BME280;64718;52.124;6.226;2023-02-28T08:44:52;103244.59;;;5.83;43.83
76022;BME280;64718;52.124;6.226;2023-02-28T08:47:19;103250.59;;;6.37;45.56
76022;BME280;64718;52.124;6.226;2023-02-28T08:49:46;103252.16;;;6.27;43.34
76022;BME280;64718;52.124;6.226;2023-02-28T08:52:13;103243.03;;;6.52;44.02
76022;BME280;64718;52.124;6.226;2023-02-28T08:54:39;103243.97;;;6.55;41.74
76022;BME280;64718;52.124;6.226;2023-02-28T08:57:06;103241.00;;;5.77;44.04
76022;BME280;64718;52.124;6.226;2023-02-28T08:59:34;103249.78;;;5.85;43.67
76022;BME280;64718;52.124;6.226;2023-02-28T09:02:01;103242.31;;;6.00;42.55
76022;BME280;64718;52.124;6.226;2023-02-28T09:04:28;103246.84;;;6.16;43.02
76022;BME280;64718;52.124;6.226;2023-02-28T09:06:56;103244.31;;;6.19;43.29
76022;BME280;64718;52.124;6.226;2023-02-28T09:09:22;103243.25;;;6.05;41.23
76022;BME280;64718;52.124;6.226;2023-02-28T09:11:49;103246.38;;;5.87;41.34
76022;BME280;64718;52.124;6.226;2023-02-28T09:14:15;103246.47;;;5.92;41.97
76022;BME280;64718;52.124;6.226;2023-02-28T09:16:44;103252.91;;;5.67;41.19
76022;BME280;64718;52.124;6.226;2023-02-28T09:19:11;103245.53;;;5.88;40.88
76022;BME280;64718;52.124;6.226;2023-02-28T09:21:37;103244.94;;;5.53;41.47
76022;BME280;64718;52.124;6.226;2023-02-28T09:24:05;103248.09;;;5.37;42.83
76022;BME280;64718;52.124;6.226;2023-02-28T09:26:31;103256.44;;;4.79;43.69
76022;BME280;64718;52.124;6.226;2023-02-28T09:28:59;103254.97;;;4.52;43.13
76022;BME280;64718;52.124;6.226;2023-02-28T09:31:28;103259.56;;;4.26;42.18
76022;BME280;64718;52.124;6.226;2023-02-28T09:33:57;103254.19;;;4.16;42.71
76022;BME280;64718;52.124;6.226;2023-02-28T09:36:27;103251.06;;;4.30;44.29
76022;BME280;64718;52.124;6.226;2023-02-28T09:38:55;103249.53;;;4.38;44.96
76022;BME280;64718;52.124;6.226;2023-02-28T09:41:23;103256.13;;;4.26;41.45
76022;BME280;64718;52.124;6.226;2023-02-28T09:43:55;103245.94;;;4.30;42.06
76022;BME280;64718;52.124;6.226;2023-02-28T09:46:29;103249.25;;;4.25;42.83
76022;BME280;64718;52.124;6.226;2023-02-28T09:49:00;103249.19;;;4.23;42.79
76022;BME280;64718;52.124;6.226;2023-02-28T09:51:34;103249.53;;;4.38;42.01
76022;BME280;64718;52.124;6.226;2023-02-28T09:54:04;103248.59;;;4.35;40.59
76022;BME280;64718;52.124;6.226;2023-02-28T09:56:36;103250.44;;;4.40;42.45
76022;BME280;64718;52.124;6.226;2023-02-28T09:59:10;103242.75;;;4.42;41.51
76022;BME280;64718;52.124;6.226;2023-02-28T10:01:47;103236.94;;;4.52;42.42
76022;BME280;64718;52.124;6.226;2023-02-28T10:04:36;103236.47;;;4.70;42.44
76022;BME280;64718;52.124;6.226;2023-02-28T10:07:10;103240.81;;;4.71;41.88
76022;BME280;64718;52.124;6.226;2023-02-28T10:09:43;103241.22;;;4.92;42.78
76022;BME280;64718;52.124;6.226;2023-02-28T10:12:12;103246.50;;;4.98;41.13
76022;BME280;64718;52.124;6.226;2023-02-28T10:14:45;103233.66;;;5.01;40.77
76022;BME280;64718;52.124;6.226;2023-02-28T10:17:14;103236.38;;;5.09;41.85
76022;BME280;64718;52.124;6.226;2023-02-28T10:19:49;103243.88;;;4.97;40.45
76022;BME280;64718;52.124;6.226;2023-02-28T10:22:22;103237.91;;;4.99;42.19
76022;BME280;64718;52.124;6.226;2023-02-28T10:24:53;103232.00;;;5.05;41.14
76022;BME280;64718;52.124;6.226;2023-02-28T10:27:23;103222.38;;;4.96;40.82
76022;BME280;64718;52.124;6.226;2023-02-28T10:29:51;103224.13;;;4.97;40.90
76022;BME280;64718;52.124;6.226;2023-02-28T10:32:20;103220.22;;;5.19;41.72
76022;BME280;64718;52.124;6.226;2023-02-28T10:34:52;103223.13;;;5.34;41.24
76022;BME280;64718;52.124;6.226;2023-02-28T10:37:21;103214.59;;;5.40;41.02
76022;BME280;64718;52.124;6.226;2023-02-28T10:39:48;103230.22;;;5.48;40.89
76022;BME280;64718;52.124;6.226;2023-02-28T10:42:23;103220.75;;;5.47;40.40
76022;BME280;64718;52.124;6.226;2023-02-28T10:45:06;103221.72;;;5.55;42.01
76022;BME280;64718;52.124;6.226;2023-02-28T10:47:33;103218.25;;;5.53;40.04
76022;BME280;64718;52.124;6.226;2023-02-28T10:50:04;103216.00;;;5.74;43.17
76022;BME280;64718;52.124;6.226;2023-02-28T10:52:37;103220.69;;;5.93;43.13
76022;BME280;64718;52.124;6.226;2023-02-28T10:55:18;103214.50;;;5.85;40.88
76022;BME280;64718;52.124;6.226;2023-02-28T10:57:46;103216.44;;;5.97;44.17
76022;BME280;64718;52.124;6.226;2023-02-28T11:00:15;103215.78;;;6.12;41.48
76022;BME280;64718;52.124;6.226;2023-02-28T11:02:42;103215.56;;;5.96;39.92
76022;BME280;64718;52.124;6.226;2023-02-28T11:05:30;103214.41;;;5.79;39.64
76022;BME280;64718;52.124;6.226;2023-02-28T11:08:02;103213.94;;;6.05;43.09
76022;BME280;64718;52.124;6.226;2023-02-28T11:10:31;103208.16;;;6.21;41.92
76022;BME280;64718;52.124;6.226;2023-02-28T11:13:00;103204.84;;;6.32;41.15
76022;BME280;64718;52.124;6.226;2023-02-28T11:15:29;103199.72;;;6.35;43.35
76022;BME280;64718;52.124;6.226;2023-02-28T11:17:57;103212.47;;;6.22;40.15
76022;BME280;64718;52.124;6.226;2023-02-28T11:20:27;103200.22;;;6.07;41.76
76022;BME280;64718;52.124;6.226;2023-02-28T11:22:57;103198.44;;;6.05;40.92
76022;BME280;64718;52.124;6.226;2023-02-28T11:25:25;103191.47;;;5.97;40.60
76022;BME280;64718;52.124;6.226;2023-02-28T11:27:54;103189.91;;;6.09;42.59
76022;BME280;64718;52.124;6.226;2023-02-28T11:30:35;103197.03;;;6.26;43.36
76022;BME280;64718;52.124;6.226;2023-02-28T11:33:21;103184.94;;;6.24;42.24
76022;BME280;64718;52.124;6.226;2023-02-28T11:35:49;103185.81;;;6.26;40.98
76022;BME280;64718;52.124;6.226;2023-02-28T11:38:18;103182.97;;;6.06;41.31
76022;BME280;64718;52.124;6.226;2023-02-28T11:40:50;103182.19;;;6.12;41.83
76022;BME280;64718;52.124;6.226;2023-02-28T11:43:30;103180.72;;;6.32;40.19
76022;BME280;64718;52.124;6.226;2023-02-28T11:46:14;103173.78;;;6.28;41.31
76022;BME280;64718;52.124;6.226;2023-02-28T11:48:52;103176.41;;;6.31;42.66
76022;BME280;64718;52.124;6.226;2023-02-28T11:51:24;103192.03;;;6.39;42.63
76022;BME280;64718;52.124;6.226;2023-02-28T11:54:04;103185.28;;;6.50;40.77
76022;BME280;64718;52.124;6.226;2023-02-28T11:56:36;103182.69;;;6.48;42.22
76022;BME280;64718;52.124;6.226;2023-02-28T11:59:16;103176.66;;;6.49;41.53
76022;BME280;64718;52.124;6.226;2023-02-28T12:02:02;103165.75;;;6.75;42.48
76022;BME280;64718;52.124;6.226;2023-02-28T12:04:38;103156.88;;;6.53;38.82
76022;BME280;64718;52.124;6.226;2023-02-28T12:07:15;103162.16;;;6.62;43.02
76022;BME280;64718;52.124;6.226;2023-02-28T12:09:55;103163.66;;;6.43;39.72
76022;BME280;64718;52.124;6.226;2023-02-28T12:12:37;103160.16;;;6.38;40.42
76022;BME280;64718;52.124;6.226;2023-02-28T12:15:26;103159.19;;;6.31;39.65
76022;BME280;64718;52.124;6.226;2023-02-28T12:18:07;103156.81;;;6.45;40.24
76022;BME280;64718;52.124;6.226;2023-02-28T12:20:45;103152.44;;;6.41;39.75
76022;BME280;64718;52.124;6.226;2023-02-28T12:23:43;103152.34;;;6.35;39.37
76022;BME280;64718;52.124;6.226;2023-02-28T12:26:18;103152.16;;;6.20;38.61
76022;BME280;64718;52.124;6.226;2023-02-28T12:28:49;103146.44;;;6.44;39.30
76022;BME280;64718;52.124;6.226;2023-02-28T12:31:20;103146.53;;;6.51;41.34
76022;BME280;64718;52.124;6.226;2023-02-28T12:33:51;103146.00;;;6.83;39.52
76022;BME280;64718;52.124;6.226;2023-02-28T12:36:20;103138.41;;;6.96;40.79
76022;BME280;64718;52.124;6.226;2023-02-28T12:38:53;103133.16;;;6.93;38.66
76022;BME280;64718;52.124;6.226;2023-02-28T12:41:27;103140.06;;;6.93;38.49
76022;BME280;64718;52.124;6.226;2023-02-28T12:44:02;103139.00;;;6.73;39.87
76022;BME280;64718;52.124;6.226;2023-02-28T12:46:35;103132.13;;;6.76;40.50
76022;BME280;64718;52.124;6.226;2023-02-28T12:49:06;103129.50;;;6.70;40.96
76022;BME280;64718;52.124;6.226;2023-02-28T12:51:35;103118.28;;;6.70;41.04
76022;BME280;64718;52.124;6.226;2023-02-28T12:54:10;103095.06;;;6.74;40.38
76022;BME280;64718;52.124;6.226;2023-02-28T12:56:44;103115.00;;;6.87;40.12
76022;BME280;64718;52.124;6.226;2023-02-28T12:59:21;103104.53;;;6.74;38.66
76022;BME280;64718;52.124;6.226;2023-02-28T13:02:10;103105.41;;;6.77;39.43
76022;BME280;64718;52.124;6.226;2023-02-28T13:07:54;103095.94;;;6.76;37.98
76022;BME280;64718;52.124;6.226;2023-02-28T13:10:24;103100.28;;;6.80;38.38
76022;BME280;64718;52.124;6.226;2023-02-28T13:13:03;103090.81;;;6.84;37.09
76022;BME280;64718;52.124;6.226;2023-02-28T13:15:30;103090.72;;;6.73;37.01
76022;BME280;64718;52.124;6.226;2023-02-28T13:18:00;103100.34;;;6.88;37.42
76022;BME280;64718;52.124;6.226;2023-02-28T13:20:35;103096.94;;;6.93;37.70
76022;BME280;64718;52.124;6.226;2023-02-28T13:23:02;103084.09;;;6.98;39.49
76022;BME280;64718;52.124;6.226;2023-02-28T13:25:51;103090.16;;;7.03;41.65